Flight Track Log - Related Links

Times and Time Zones

All times are in EDT time to prevent confusion due to time zone crossing. See the N2193W flight status page for this flight to view local times or setup timezone preferences in your user account.

Time Position Orientation Groundspeed Altitude Reporting Facility
EDT Latitude Longitude Course Direction KTS MPH feet Rate Location/Type
Tue 04:04:57 PM 30.0711 -95.5547 330° Northwest 108 124 600  Level Houston Center
Tue 04:05:34 PM 30.0867 -95.5650 330° Northwest 112 129 1,000 632 Climbing Houston Center
Tue 04:06:13 PM 30.1000 -95.5739 330° Northwest 103 119 1,400 594 Climbing Houston Center
Tue 04:07:15 PM 30.1236 -95.5975 319° Northwest 107 123 2,000 629 Climbing Houston Center
Tue 04:08:17 PM 30.1500 -95.6297 313° West 112 129 2,700 629 Climbing Houston Center
Tue 04:09:19 PM 30.1725 -95.6556 315° West 113 130 3,300 581 Climbing Houston Center
Tue 04:10:21 PM 30.1956 -95.6800 318° Northwest 113 130 3,900 581 Climbing Houston Center
Tue 04:11:23 PM 30.2217 -95.7061 319° Northwest 121 139 4,500 290 Climbing Houston Center
Tue 04:12:25 PM 30.2481 -95.7347 317° Northwest 128 147 4,500 240 Level Houston Center
Tue 04:13:28 PM 30.2792 -95.7681 317° Northwest 129 148 5,000 432 Climbing Houston Center
Tue 04:14:30 PM 30.3047 -95.7964 316° Northwest 128 147 5,400 435 Climbing Houston Center
Tue 04:15:32 PM 30.3292 -95.8231 317° Northwest 123 142 5,900 435 Climbing Houston Center
Tue 04:16:34 PM 30.3517 -95.8481 316° Northwest 115 132 6,300 290 Climbing Houston Center
Tue 04:17:36 PM 30.3769 -95.8733 319° Northwest 120 138 6,500 97 Climbing Houston Center
Tue 04:18:38 PM 30.4042 -95.9036 316° Northwest 133 153 6,500 48 Level Houston Center
Tue 04:19:40 PM 30.4344 -95.9364 317° Northwest 125 144 6,600 48 Climbing Houston Center
Tue 04:20:42 PM 30.4619 -95.9653 318° Northwest 132 152 6,600  Level Houston Center
Tue 04:21:45 PM 30.4892 -95.9953 316° Northwest 136 157 6,600  Level Houston Center
Tue 04:22:47 PM 30.5169 -96.0242 318° Northwest 136 157 6,600 48 Level Houston Center
Tue 04:23:49 PM 30.5494 -96.0569 319° Northwest 136 157 6,700  Climbing Houston Center
Tue 04:24:50 PM 30.5756 -96.0889 314° West 130 150 6,600 -49 Descending Houston Center
Tue 04:25:51 PM 30.6031 -96.1172 318° Northwest 135 155 6,600  Level Houston Center
Tue 04:26:53 PM 30.6286 -96.1458 316° Northwest 129 148 6,600  Level Houston Center
Tue 04:27:54 PM 30.6561 -96.1742 318° Northwest 129 148 6,600  Level Houston Center
Tue 04:28:55 PM 30.6842 -96.2075 314° West 134 154 6,600  Level Houston Center
Tue 04:30:02 PM 30.7167 -96.2406 319° Northwest 138 159 6,600  Level Houston Center
Tue 04:30:57 PM 30.7397 -96.2692 313° West 136 157 6,600  Level Houston Center
Tue 04:31:58 PM 30.7717 -96.3022 318° Northwest 142 163 6,600  Level Houston Center
Tue 04:33:05 PM 30.8019 -96.3353 317° Northwest 138 159 6,600  Level Houston Center
Tue 04:34:06 PM 30.8294 -96.3636 319° Northwest 134 154 6,600  Level Houston Center
Tue 04:35:07 PM 30.8572 -96.3947 316° Northwest 136 157 6,600  Level Houston Center
Tue 04:36:09 PM 30.8847 -96.4256 316° Northwest 132 152 6,600  Level Houston Center
Tue 04:37:10 PM 30.9125 -96.4567 316° Northwest 133 153 6,600  Level Houston Center
Tue 04:38:11 PM 30.9400 -96.4853 318° Northwest 136 157 6,600  Level Houston Center
Tue 04:39:19 PM 30.9703 -96.5208 315° West 135 155 6,600  Level Houston Center
Tue 04:40:20 PM 30.9978 -96.5494 318° Northwest 128 147 6,600  Level Houston Center
Tue 04:41:25 PM 31.0239 -96.5772 318° Northwest 128 147 6,600  Level Houston Center
Tue 04:42:27 PM 31.0503 -96.6053 318° Northwest 128 147 6,600 -48 Level Houston Center
Tue 04:43:29 PM 31.0836 -96.6422 316° Northwest 136 157 6,500 -48 Descending Houston Center
Tue 04:44:31 PM 31.1125 -96.6742 317° Northwest 140 161 6,500  Level Houston Center
Tue 04:45:34 PM 31.1406 -96.7044 317° Northwest 138 159 6,500  Level Houston Center
Tue 04:46:36 PM 31.1678 -96.7347 316° Northwest 136 157 6,500  Level Houston Center
Tue 04:47:38 PM 31.1958 -96.7656 317° Northwest 135 155 6,500  Level Houston Center
Tue 04:48:40 PM 31.2244 -96.7958 318° Northwest 137 158 6,500  Level Houston Center
Tue 04:49:42 PM 31.2536 -96.8289 316° Northwest 140 161 6,500  Level Houston Center
Tue 04:50:44 PM 31.2842 -96.8644 315° West 137 158 6,500  Level Houston Center
Tue 04:51:46 PM 31.3111 -96.8939 317° Northwest 133 153 6,500  Level Houston Center
Tue 04:52:48 PM 31.3389 -96.9236 318° Northwest 133 153 6,500 -240 Level Houston Center
Tue 04:53:51 PM 31.3667 -96.9556 316° Northwest 136 157 6,000 -528 Descending Houston Center
Tue 04:54:53 PM 31.3939 -96.9853 317° Northwest 135 155 5,400 -581 Descending Houston Center
Tue 04:55:55 PM 31.4181 -97.0192 310° West 134 154 4,800 -726 Descending Houston Center
Tue 04:56:57 PM 31.4433 -97.0636 304° West 137 158 3,900 -871 Descending Houston Center

Login

Don't have an account? Register now (free) for customized features, flight alerts, and more!